sensor_id;sensor_type;location;lat;lon;timestamp;P1;durP1;ratioP1;P2;durP2;ratioP2
47259;SDS011;32999;52.412;4.890;2023-12-07T00:01:52;9.88;;;5.68;;
47259;SDS011;32999;52.412;4.890;2023-12-07T02:23:27;7.15;;;4.65;;
47259;SDS011;32999;52.412;4.890;2023-12-07T02:29:00;9.18;;;4.80;;
47259;SDS011;32999;52.412;4.890;2023-12-07T02:34:35;10.00;;;4.82;;
47259;SDS011;32999;52.412;4.890;2023-12-07T04:29:58;7.05;;;4.15;;
47259;SDS011;32999;52.412;4.890;2023-12-07T04:35:26;7.55;;;4.15;;
47259;SDS011;32999;52.412;4.890;2023-12-07T07:25:48;27.83;;;10.82;;
47259;SDS011;32999;52.412;4.890;2023-12-07T07:30:52;23.13;;;10.88;;
47259;SDS011;32999;52.412;4.890;2023-12-07T07:35:59;24.17;;;10.70;;
47259;SDS011;32999;52.412;4.890;2023-12-07T07:41:05;32.75;;;12.23;;
47259;SDS011;32999;52.412;4.890;2023-12-07T07:46:07;49.42;;;17.40;;
47259;SDS011;32999;52.412;4.890;2023-12-07T07:51:09;63.85;;;18.17;;
47259;SDS011;32999;52.412;4.890;2023-12-07T07:56:12;118.38;;;19.73;;
47259;SDS011;32999;52.412;4.890;2023-12-07T08:01:14;123.65;;;19.70;;
47259;SDS011;32999;52.412;4.890;2023-12-07T08:06:15;41.47;;;13.45;;
47259;SDS011;32999;52.412;4.890;2023-12-07T08:11:18;49.90;;;15.57;;
47259;SDS011;32999;52.412;4.890;2023-12-07T08:16:20;71.93;;;16.58;;
47259;SDS011;32999;52.412;4.890;2023-12-07T08:21:21;44.10;;;15.57;;
47259;SDS011;32999;52.412;4.890;2023-12-07T08:26:24;200.63;;;18.85;;
47259;SDS011;32999;52.412;4.890;2023-12-07T08:36:29;76.50;;;16.00;;
47259;SDS011;32999;52.412;4.890;2023-12-07T08:41:32;142.90;;;17.85;;
47259;SDS011;32999;52.412;4.890;2023-12-07T08:46:34;39.20;;;14.95;;
47259;SDS011;32999;52.412;4.890;2023-12-07T08:51:36;104.10;;;16.27;;
47259;SDS011;32999;52.412;4.890;2023-12-07T08:56:39;38.83;;;15.52;;
47259;SDS011;32999;52.412;4.890;2023-12-07T09:01:41;57.55;;;16.52;;
47259;SDS011;32999;52.412;4.890;2023-12-07T09:06:42;109.88;;;18.90;;
47259;SDS011;32999;52.412;4.890;2023-12-07T09:11:45;165.57;;;21.13;;
47259;SDS011;32999;52.412;4.890;2023-12-07T09:16:46;162.95;;;23.35;;
47259;SDS011;32999;52.412;4.890;2023-12-07T09:21:48;66.05;;;17.77;;
47259;SDS011;32999;52.412;4.890;2023-12-07T09:26:51;77.15;;;16.85;;
47259;SDS011;32999;52.412;4.890;2023-12-07T09:31:53;137.65;;;18.73;;
47259;SDS011;32999;52.412;4.890;2023-12-07T09:37:05;128.68;;;19.35;;
47259;SDS011;32999;52.412;4.890;2023-12-07T09:42:08;97.65;;;17.35;;
47259;SDS011;32999;52.412;4.890;2023-12-07T09:47:09;66.13;;;16.70;;
47259;SDS011;32999;52.412;4.890;2023-12-07T09:52:11;59.88;;;14.32;;
47259;SDS011;32999;52.412;4.890;2023-12-07T09:57:16;31.50;;;12.52;;
47259;SDS011;32999;52.412;4.890;2023-12-07T10:02:18;32.97;;;12.68;;
47259;SDS011;32999;52.412;4.890;2023-12-07T10:07:21;50.70;;;14.90;;
47259;SDS011;32999;52.412;4.890;2023-12-07T10:12:34;36.28;;;12.27;;
47259;SDS011;32999;52.412;4.890;2023-12-07T10:17:48;24.23;;;11.45;;
47259;SDS011;32999;52.412;4.890;2023-12-07T10:22:54;25.92;;;11.25;;
47259;SDS011;32999;52.412;4.890;2023-12-07T10:28:03;69.70;;;13.23;;
47259;SDS011;32999;52.412;4.890;2023-12-07T10:33:07;46.55;;;11.25;;
47259;SDS011;32999;52.412;4.890;2023-12-07T10:38:09;36.30;;;10.30;;
47259;SDS011;32999;52.412;4.890;2023-12-07T10:43:13;28.65;;;9.30;;
47259;SDS011;32999;52.412;4.890;2023-12-07T10:48:16;28.65;;;10.18;;
47259;SDS011;32999;52.412;4.890;2023-12-07T10:53:20;23.65;;;10.43;;
47259;SDS011;32999;52.412;4.890;2023-12-07T10:58:24;32.30;;;9.07;;
47259;SDS011;32999;52.412;4.890;2023-12-07T11:03:26;22.60;;;7.97;;
47259;SDS011;32999;52.412;4.890;2023-12-07T11:08:31;39.20;;;10.15;;
47259;SDS011;32999;52.412;4.890;2023-12-07T11:13:36;33.10;;;7.55;;
47259;SDS011;32999;52.412;4.890;2023-12-07T11:18:38;14.90;;;7.05;;
47259;SDS011;32999;52.412;4.890;2023-12-07T11:23:40;17.80;;;7.88;;
47259;SDS011;32999;52.412;4.890;2023-12-07T11:28:44;16.48;;;8.02;;
47259;SDS011;32999;52.412;4.890;2023-12-07T11:33:45;34.22;;;7.60;;
47259;SDS011;32999;52.412;4.890;2023-12-07T11:44:34;22.40;;;8.88;;
47259;SDS011;32999;52.412;4.890;2023-12-07T11:49:35;18.60;;;7.85;;
47259;SDS011;32999;52.412;4.890;2023-12-07T11:54:37;20.55;;;8.70;;
47259;SDS011;32999;52.412;4.890;2023-12-07T11:59:40;21.00;;;10.38;;
47259;SDS011;32999;52.412;4.890;2023-12-07T12:04:43;21.52;;;7.30;;
47259;SDS011;32999;52.412;4.890;2023-12-07T12:09:45;19.33;;;7.60;;
47259;SDS011;32999;52.412;4.890;2023-12-07T12:14:48;22.90;;;8.50;;
47259;SDS011;32999;52.412;4.890;2023-12-07T12:19:49;16.13;;;7.95;;
47259;SDS011;32999;52.412;4.890;2023-12-07T12:24:54;23.85;;;9.73;;
47259;SDS011;32999;52.412;4.890;2023-12-07T12:29:57;49.38;;;9.07;;
47259;SDS011;32999;52.412;4.890;2023-12-07T12:35:00;26.95;;;10.45;;
47259;SDS011;32999;52.412;4.890;2023-12-07T12:40:05;22.53;;;9.37;;
47259;SDS011;32999;52.412;4.890;2023-12-07T12:45:09;18.10;;;8.02;;
47259;SDS011;32999;52.412;4.890;2023-12-07T12:50:11;29.70;;;9.53;;
47259;SDS011;32999;52.412;4.890;2023-12-07T12:55:13;31.65;;;9.40;;
47259;SDS011;32999;52.412;4.890;2023-12-07T13:00:16;31.40;;;10.32;;
47259;SDS011;32999;52.412;4.890;2023-12-07T13:05:18;60.35;;;12.05;;
47259;SDS011;32999;52.412;4.890;2023-12-07T13:10:19;23.85;;;9.77;;
47259;SDS011;32999;52.412;4.890;2023-12-07T13:15:23;28.60;;;11.52;;
47259;SDS011;32999;52.412;4.890;2023-12-07T13:20:25;24.17;;;10.70;;
47259;SDS011;32999;52.412;4.890;2023-12-07T13:25:27;31.95;;;12.30;;
47259;SDS011;32999;52.412;4.890;2023-12-07T13:30:30;23.60;;;10.75;;
47259;SDS011;32999;52.412;4.890;2023-12-07T13:35:37;26.38;;;9.63;;
47259;SDS011;32999;52.412;4.890;2023-12-07T13:40:38;25.63;;;11.43;;
47259;SDS011;32999;52.412;4.890;2023-12-07T13:45:42;22.70;;;9.40;;
47259;SDS011;32999;52.412;4.890;2023-12-07T13:50:44;28.33;;;12.02;;
47259;SDS011;32999;52.412;4.890;2023-12-07T13:55:46;26.35;;;10.80;;
47259;SDS011;32999;52.412;4.890;2023-12-07T14:00:49;28.85;;;9.82;;
47259;SDS011;32999;52.412;4.890;2023-12-07T14:05:51;28.52;;;10.27;;
47259;SDS011;32999;52.412;4.890;2023-12-07T14:10:55;30.73;;;11.10;;
47259;SDS011;32999;52.412;4.890;2023-12-07T14:15:58;31.83;;;12.65;;
47259;SDS011;32999;52.412;4.890;2023-12-07T14:21:00;25.00;;;10.40;;
47259;SDS011;32999;52.412;4.890;2023-12-07T14:26:02;32.33;;;11.65;;
47259;SDS011;32999;52.412;4.890;2023-12-07T14:31:05;30.80;;;10.93;;
47259;SDS011;32999;52.412;4.890;2023-12-07T14:36:14;34.85;;;12.13;;
47259;SDS011;32999;52.412;4.890;2023-12-07T14:41:16;29.02;;;10.23;;
47259;SDS011;32999;52.412;4.890;2023-12-07T14:46:22;26.33;;;10.80;;
47259;SDS011;32999;52.412;4.890;2023-12-07T14:51:23;33.90;;;12.20;;
47259;SDS011;32999;52.412;4.890;2023-12-07T14:56:25;27.05;;;11.45;;
47259;SDS011;32999;52.412;4.890;2023-12-07T15:01:28;30.88;;;11.23;;
47259;SDS011;32999;52.412;4.890;2023-12-07T15:06:30;31.52;;;13.55;;
47259;SDS011;32999;52.412;4.890;2023-12-07T15:11:35;28.15;;;11.73;;
47259;SDS011;32999;52.412;4.890;2023-12-07T15:16:37;32.30;;;12.20;;
47259;SDS011;32999;52.412;4.890;2023-12-07T15:21:39;29.73;;;13.23;;
47259;SDS011;32999;52.412;4.890;2023-12-07T15:26:41;32.63;;;14.40;;
47259;SDS011;32999;52.412;4.890;2023-12-07T15:31:44;32.30;;;13.98;;
47259;SDS011;32999;52.412;4.890;2023-12-07T15:36:45;33.20;;;15.05;;
47259;SDS011;32999;52.412;4.890;2023-12-07T15:41:47;38.13;;;15.75;;
47259;SDS011;32999;52.412;4.890;2023-12-07T15:46:50;38.30;;;14.88;;
47259;SDS011;32999;52.412;4.890;2023-12-07T15:51:52;41.47;;;16.63;;
47259;SDS011;32999;52.412;4.890;2023-12-07T15:56:54;43.13;;;15.05;;
47259;SDS011;32999;52.412;4.890;2023-12-07T16:01:57;34.63;;;14.68;;
47259;SDS011;32999;52.412;4.890;2023-12-07T16:06:59;41.17;;;17.35;;
47259;SDS011;32999;52.412;4.890;2023-12-07T16:12:02;39.75;;;16.20;;
47259;SDS011;32999;52.412;4.890;2023-12-07T16:17:06;42.33;;;18.55;;
47259;SDS011;32999;52.412;4.890;2023-12-07T16:22:08;39.95;;;17.25;;
47259;SDS011;32999;52.412;4.890;2023-12-07T16:27:10;44.83;;;16.67;;
47259;SDS011;32999;52.412;4.890;2023-12-07T16:32:13;37.85;;;16.15;;
47259;SDS011;32999;52.412;4.890;2023-12-07T16:37:15;37.90;;;17.33;;
47259;SDS011;32999;52.412;4.890;2023-12-07T16:42:27;43.83;;;16.92;;
47259;SDS011;32999;52.412;4.890;2023-12-07T16:47:35;48.63;;;17.60;;
47259;SDS011;32999;52.412;4.890;2023-12-07T16:52:37;49.83;;;18.85;;
47259;SDS011;32999;52.412;4.890;2023-12-07T16:57:39;54.38;;;20.77;;
47259;SDS011;32999;52.412;4.890;2023-12-07T17:02:42;59.20;;;20.20;;
47259;SDS011;32999;52.412;4.890;2023-12-07T17:07:44;59.38;;;22.33;;
47259;SDS011;32999;52.412;4.890;2023-12-07T17:12:45;53.17;;;19.95;;
47259;SDS011;32999;52.412;4.890;2023-12-07T17:17:48;57.22;;;23.80;;
47259;SDS011;32999;52.412;4.890;2023-12-07T17:22:49;65.03;;;23.23;;
47259;SDS011;32999;52.412;4.890;2023-12-07T17:27:51;54.88;;;23.50;;
47259;SDS011;32999;52.412;4.890;2023-12-07T17:32:54;64.20;;;24.27;;
47259;SDS011;32999;52.412;4.890;2023-12-07T17:37:56;55.45;;;25.00;;
47259;SDS011;32999;52.412;4.890;2023-12-07T17:43:01;45.83;;;22.95;;
47259;SDS011;32999;52.412;4.890;2023-12-07T17:48:04;46.92;;;22.33;;
47259;SDS011;32999;52.412;4.890;2023-12-07T17:53:11;42.72;;;20.58;;
47259;SDS011;32999;52.412;4.890;2023-12-07T17:58:12;39.03;;;19.23;;
47259;SDS011;32999;52.412;4.890;2023-12-07T18:03:15;41.03;;;19.05;;
47259;SDS011;32999;52.412;4.890;2023-12-07T18:08:17;33.17;;;17.23;;
47259;SDS011;32999;52.412;4.890;2023-12-07T18:13:22;33.25;;;17.23;;
47259;SDS011;32999;52.412;4.890;2023-12-07T18:18:48;32.53;;;16.05;;
47259;SDS011;32999;52.412;4.890;2023-12-07T18:23:49;30.03;;;16.00;;
47259;SDS011;32999;52.412;4.890;2023-12-07T18:34:28;24.63;;;13.90;;
47259;SDS011;32999;52.412;4.890;2023-12-07T18:41:47;26.73;;;13.88;;
47259;SDS011;32999;52.412;4.890;2023-12-07T18:45:18;25.40;;;12.98;;
47259;SDS011;32999;52.412;4.890;2023-12-07T18:50:35;26.52;;;14.05;;
47259;SDS011;32999;52.412;4.890;2023-12-07T18:55:39;30.00;;;13.80;;
47259;SDS011;32999;52.412;4.890;2023-12-07T19:00:41;26.67;;;13.55;;
47259;SDS011;32999;52.412;4.890;2023-12-07T19:05:44;24.23;;;11.65;;
47259;SDS011;32999;52.412;4.890;2023-12-07T19:10:46;19.58;;;11.50;;
47259;SDS011;32999;52.412;4.890;2023-12-07T19:15:50;18.70;;;10.25;;
47259;SDS011;32999;52.412;4.890;2023-12-07T19:20:53;22.35;;;12.05;;
47259;SDS011;32999;52.412;4.890;2023-12-07T19:26:09;20.10;;;11.30;;
47259;SDS011;32999;52.412;4.890;2023-12-07T19:31:11;29.42;;;10.02;;
47259;SDS011;32999;52.412;4.890;2023-12-07T19:36:16;15.68;;;10.60;;
47259;SDS011;32999;52.412;4.890;2023-12-07T19:41:33;24.08;;;10.30;;
47259;SDS011;32999;52.412;4.890;2023-12-07T19:46:37;18.38;;;8.60;;
47259;SDS011;32999;52.412;4.890;2023-12-07T19:51:41;19.08;;;9.43;;
47259;SDS011;32999;52.412;4.890;2023-12-07T19:56:43;13.55;;;8.35;;
47259;SDS011;32999;52.412;4.890;2023-12-07T20:01:45;17.23;;;8.57;;
47259;SDS011;32999;52.412;4.890;2023-12-07T20:06:51;16.55;;;9.00;;
47259;SDS011;32999;52.412;4.890;2023-12-07T20:17:05;16.50;;;8.38;;
47259;SDS011;32999;52.412;4.890;2023-12-07T20:22:16;13.35;;;7.50;;
47259;SDS011;32999;52.412;4.890;2023-12-07T20:27:31;17.55;;;9.02;;
47259;SDS011;32999;52.412;4.890;2023-12-07T20:32:36;15.60;;;8.52;;
47259;SDS011;32999;52.412;4.890;2023-12-07T20:38:14;14.07;;;8.20;;
47259;SDS011;32999;52.412;4.890;2023-12-07T21:00:20;11.48;;;6.57;;
47259;SDS011;32999;52.412;4.890;2023-12-07T21:05:30;12.90;;;6.85;;
47259;SDS011;32999;52.412;4.890;2023-12-07T21:10:32;13.55;;;6.97;;
47259;SDS011;32999;52.412;4.890;2023-12-07T21:15:35;11.93;;;7.65;;
47259;SDS011;32999;52.412;4.890;2023-12-07T21:20:38;13.60;;;6.47;;
47259;SDS011;32999;52.412;4.890;2023-12-07T21:25:44;9.63;;;7.03;;
47259;SDS011;32999;52.412;4.890;2023-12-07T21:47:52;9.60;;;6.30;;
47259;SDS011;32999;52.412;4.890;2023-12-07T21:58:53;12.85;;;6.22;;
47259;SDS011;32999;52.412;4.890;2023-12-07T22:21:34;10.32;;;6.18;;
47259;SDS011;32999;52.412;4.890;2023-12-07T22:26:36;11.45;;;6.43;;
47259;SDS011;32999;52.412;4.890;2023-12-07T22:32:46;14.07;;;5.85;;
47259;SDS011;32999;52.412;4.890;2023-12-07T23:00:19;16.17;;;8.95;;
47259;SDS011;32999;52.412;4.890;2023-12-07T23:05:26;17.83;;;8.50;;
47259;SDS011;32999;52.412;4.890;2023-12-07T23:10:41;19.90;;;8.80;;
47259;SDS011;32999;52.412;4.890;2023-12-07T23:33:23;15.43;;;8.02;;
47259;SDS011;32999;52.412;4.890;2023-12-07T23:44:12;15.38;;;7.65;;
47259;SDS011;32999;52.412;4.890;2023-12-07T23:49:30;16.77;;;8.70;;
